sensor_id;sensor_type;location;lat;lon;timestamp;P1;durP1;ratioP1;P2;durP2;ratioP2
59062;SDS011;44851;45.648;9.004;2023-04-08T00:01:47;27.00;;;24.17;;
59062;SDS011;44851;45.648;9.004;2023-04-08T00:04:16;28.40;;;24.93;;
59062;SDS011;44851;45.648;9.004;2023-04-08T00:06:41;27.13;;;24.27;;
59062;SDS011;44851;45.648;9.004;2023-04-08T00:09:07;26.63;;;23.83;;
59062;SDS011;44851;45.648;9.004;2023-04-08T00:11:32;26.30;;;23.43;;
59062;SDS011;44851;45.648;9.004;2023-04-08T00:13:58;26.83;;;23.97;;
59062;SDS011;44851;45.648;9.004;2023-04-08T00:16:24;27.63;;;24.67;;
59062;SDS011;44851;45.648;9.004;2023-04-08T00:18:50;29.20;;;24.47;;
59062;SDS011;44851;45.648;9.004;2023-04-08T00:21:16;29.80;;;25.07;;
59062;SDS011;44851;45.648;9.004;2023-04-08T00:23:44;27.83;;;25.00;;
59062;SDS011;44851;45.648;9.004;2023-04-08T00:26:10;29.60;;;26.23;;
59062;SDS011;44851;45.648;9.004;2023-04-08T00:28:36;29.07;;;25.83;;
59062;SDS011;44851;45.648;9.004;2023-04-08T00:31:01;28.93;;;25.83;;
59062;SDS011;44851;45.648;9.004;2023-04-08T00:33:27;31.23;;;27.27;;
59062;SDS011;44851;45.648;9.004;2023-04-08T00:35:52;31.00;;;27.60;;
59062;SDS011;44851;45.648;9.004;2023-04-08T00:38:18;30.10;;;27.07;;
59062;SDS011;44851;45.648;9.004;2023-04-08T00:40:43;29.87;;;26.57;;
59062;SDS011;44851;45.648;9.004;2023-04-08T00:43:09;32.30;;;28.90;;
59062;SDS011;44851;45.648;9.004;2023-04-08T00:45:35;30.43;;;27.13;;
59062;SDS011;44851;45.648;9.004;2023-04-08T00:48:01;30.77;;;27.47;;
59062;SDS011;44851;45.648;9.004;2023-04-08T00:50:27;31.67;;;28.37;;
59062;SDS011;44851;45.648;9.004;2023-04-08T00:52:53;30.90;;;27.00;;
59062;SDS011;44851;45.648;9.004;2023-04-08T00:55:18;31.10;;;27.17;;
59062;SDS011;44851;45.648;9.004;2023-04-08T00:57:44;32.07;;;28.63;;
59062;SDS011;44851;45.648;9.004;2023-04-08T01:00:20;31.90;;;28.03;;
59062;SDS011;44851;45.648;9.004;2023-04-08T01:05:35;32.97;;;29.33;;
59062;SDS011;44851;45.648;9.004;2023-04-08T01:08:04;32.73;;;29.23;;
59062;SDS011;44851;45.648;9.004;2023-04-08T01:10:33;33.10;;;28.93;;
59062;SDS011;44851;45.648;9.004;2023-04-08T01:13:04;33.63;;;30.13;;
59062;SDS011;44851;45.648;9.004;2023-04-08T01:15:34;34.80;;;30.47;;
59062;SDS011;44851;45.648;9.004;2023-04-08T01:18:05;34.07;;;30.30;;
59062;SDS011;44851;45.648;9.004;2023-04-08T01:20:31;34.30;;;30.67;;
59062;SDS011;44851;45.648;9.004;2023-04-08T01:25:48;34.07;;;30.40;;
59062;SDS011;44851;45.648;9.004;2023-04-08T01:28:16;36.83;;;31.97;;
59062;SDS011;44851;45.648;9.004;2023-04-08T01:30:43;34.83;;;30.87;;
59062;SDS011;44851;45.648;9.004;2023-04-08T01:33:11;35.60;;;31.50;;
59062;SDS011;44851;45.648;9.004;2023-04-08T01:35:39;34.73;;;31.03;;
59062;SDS011;44851;45.648;9.004;2023-04-08T01:38:06;35.83;;;30.87;;
59062;SDS011;44851;45.648;9.004;2023-04-08T01:40:34;35.70;;;31.73;;
59062;SDS011;44851;45.648;9.004;2023-04-08T01:43:04;34.90;;;31.13;;
59062;SDS011;44851;45.648;9.004;2023-04-08T01:45:32;34.20;;;29.90;;
59062;SDS011;44851;45.648;9.004;2023-04-08T01:47:58;33.50;;;30.00;;
59062;SDS011;44851;45.648;9.004;2023-04-08T01:50:25;34.53;;;30.83;;
59062;SDS011;44851;45.648;9.004;2023-04-08T01:52:52;34.50;;;30.77;;
59062;SDS011;44851;45.648;9.004;2023-04-08T01:55:20;33.07;;;29.50;;
59062;SDS011;44851;45.648;9.004;2023-04-08T01:57:51;36.30;;;31.07;;
59062;SDS011;44851;45.648;9.004;2023-04-08T02:00:18;33.80;;;30.13;;
59062;SDS011;44851;45.648;9.004;2023-04-08T02:02:46;34.83;;;31.23;;
59062;SDS011;44851;45.648;9.004;2023-04-08T02:05:15;36.33;;;32.27;;
59062;SDS011;44851;45.648;9.004;2023-04-08T02:07:40;36.87;;;32.97;;
59062;SDS011;44851;45.648;9.004;2023-04-08T02:10:12;35.93;;;32.10;;
59062;SDS011;44851;45.648;9.004;2023-04-08T02:12:40;36.67;;;32.70;;
59062;SDS011;44851;45.648;9.004;2023-04-08T02:15:06;35.90;;;31.93;;
59062;SDS011;44851;45.648;9.004;2023-04-08T02:17:54;39.80;;;34.17;;
59062;SDS011;44851;45.648;9.004;2023-04-08T02:20:46;41.13;;;34.33;;
59062;SDS011;44851;45.648;9.004;2023-04-08T02:23:21;38.33;;;34.13;;
59062;SDS011;44851;45.648;9.004;2023-04-08T02:25:49;39.40;;;33.63;;
59062;SDS011;44851;45.648;9.004;2023-04-08T02:28:19;41.27;;;35.67;;
59062;SDS011;44851;45.648;9.004;2023-04-08T02:31:08;40.43;;;34.13;;
59062;SDS011;44851;45.648;9.004;2023-04-08T02:33:38;39.20;;;34.40;;
59062;SDS011;44851;45.648;9.004;2023-04-08T02:36:05;40.03;;;35.27;;
59062;SDS011;44851;45.648;9.004;2023-04-08T02:38:31;37.10;;;32.80;;
59062;SDS011;44851;45.648;9.004;2023-04-08T02:40:57;35.10;;;30.93;;
59062;SDS011;44851;45.648;9.004;2023-04-08T02:43:23;35.07;;;31.27;;
59062;SDS011;44851;45.648;9.004;2023-04-08T02:45:56;35.87;;;31.57;;
59062;SDS011;44851;45.648;9.004;2023-04-08T02:48:23;35.27;;;30.70;;
59062;SDS011;44851;45.648;9.004;2023-04-08T02:50:49;34.10;;;30.50;;
59062;SDS011;44851;45.648;9.004;2023-04-08T02:53:14;35.83;;;30.57;;
59062;SDS011;44851;45.648;9.004;2023-04-08T02:55:40;36.60;;;32.27;;
59062;SDS011;44851;45.648;9.004;2023-04-08T02:58:05;36.47;;;31.97;;
59062;SDS011;44851;45.648;9.004;2023-04-08T03:00:31;37.17;;;33.10;;
59062;SDS011;44851;45.648;9.004;2023-04-08T03:02:56;37.20;;;31.83;;
59062;SDS011;44851;45.648;9.004;2023-04-08T03:05:22;34.90;;;31.27;;
59062;SDS011;44851;45.648;9.004;2023-04-08T03:07:47;36.73;;;32.47;;
59062;SDS011;44851;45.648;9.004;2023-04-08T03:10:12;37.07;;;32.90;;
59062;SDS011;44851;45.648;9.004;2023-04-08T03:12:38;38.87;;;34.43;;
59062;SDS011;44851;45.648;9.004;2023-04-08T03:15:03;40.27;;;33.87;;
59062;SDS011;44851;45.648;9.004;2023-04-08T03:17:30;39.63;;;35.43;;
59062;SDS011;44851;45.648;9.004;2023-04-08T03:19:58;45.23;;;36.17;;
59062;SDS011;44851;45.648;9.004;2023-04-08T03:22:24;39.57;;;35.07;;
59062;SDS011;44851;45.648;9.004;2023-04-08T03:24:49;38.90;;;34.03;;
59062;SDS011;44851;45.648;9.004;2023-04-08T03:27:15;40.07;;;34.87;;
59062;SDS011;44851;45.648;9.004;2023-04-08T03:29:43;38.63;;;34.23;;
59062;SDS011;44851;45.648;9.004;2023-04-08T03:32:10;41.93;;;36.37;;
59062;SDS011;44851;45.648;9.004;2023-04-08T03:34:36;40.67;;;35.70;;
59062;SDS011;44851;45.648;9.004;2023-04-08T03:37:01;40.73;;;35.73;;
59062;SDS011;44851;45.648;9.004;2023-04-08T03:39:27;42.17;;;36.30;;
59062;SDS011;44851;45.648;9.004;2023-04-08T03:41:52;41.37;;;36.90;;
59062;SDS011;44851;45.648;9.004;2023-04-08T03:44:18;42.83;;;36.70;;
59062;SDS011;44851;45.648;9.004;2023-04-08T03:46:44;42.37;;;37.07;;
59062;SDS011;44851;45.648;9.004;2023-04-08T03:49:09;42.63;;;37.30;;
59062;SDS011;44851;45.648;9.004;2023-04-08T03:51:35;47.80;;;39.03;;
59062;SDS011;44851;45.648;9.004;2023-04-08T03:54:00;46.57;;;36.70;;
59062;SDS011;44851;45.648;9.004;2023-04-08T03:56:26;44.57;;;36.10;;
59062;SDS011;44851;45.648;9.004;2023-04-08T03:58:51;43.90;;;37.37;;
59062;SDS011;44851;45.648;9.004;2023-04-08T04:01:17;42.37;;;37.47;;
59062;SDS011;44851;45.648;9.004;2023-04-08T04:03:44;43.90;;;37.30;;
59062;SDS011;44851;45.648;9.004;2023-04-08T04:06:10;43.57;;;37.03;;
59062;SDS011;44851;45.648;9.004;2023-04-08T04:08:35;44.90;;;38.17;;
59062;SDS011;44851;45.648;9.004;2023-04-08T04:11:01;43.87;;;37.30;;
59062;SDS011;44851;45.648;9.004;2023-04-08T04:13:26;48.97;;;38.30;;
59062;SDS011;44851;45.648;9.004;2023-04-08T04:15:52;41.93;;;34.80;;
59062;SDS011;44851;45.648;9.004;2023-04-08T04:18:17;46.33;;;37.97;;
59062;SDS011;44851;45.648;9.004;2023-04-08T04:20:42;45.87;;;37.63;;
59062;SDS011;44851;45.648;9.004;2023-04-08T04:23:08;46.67;;;37.00;;
59062;SDS011;44851;45.648;9.004;2023-04-08T04:25:34;43.07;;;35.03;;
59062;SDS011;44851;45.648;9.004;2023-04-08T04:28:00;46.10;;;36.13;;
59062;SDS011;44851;45.648;9.004;2023-04-08T04:30:28;41.87;;;36.17;;
59062;SDS011;44851;45.648;9.004;2023-04-08T04:32:54;40.83;;;35.13;;
59062;SDS011;44851;45.648;9.004;2023-04-08T04:35:20;45.10;;;36.43;;
59062;SDS011;44851;45.648;9.004;2023-04-08T04:37:45;41.90;;;35.47;;
59062;SDS011;44851;45.648;9.004;2023-04-08T04:40:11;41.23;;;36.00;;
59062;SDS011;44851;45.648;9.004;2023-04-08T04:42:37;42.77;;;36.70;;
59062;SDS011;44851;45.648;9.004;2023-04-08T04:45:05;45.07;;;35.53;;
59062;SDS011;44851;45.648;9.004;2023-04-08T04:47:37;41.47;;;34.77;;
59062;SDS011;44851;45.648;9.004;2023-04-08T04:50:02;40.50;;;35.07;;
59062;SDS011;44851;45.648;9.004;2023-04-08T04:52:28;41.70;;;34.07;;
59062;SDS011;44851;45.648;9.004;2023-04-08T04:54:53;41.20;;;35.23;;
59062;SDS011;44851;45.648;9.004;2023-04-08T04:57:21;41.80;;;34.87;;
59062;SDS011;44851;45.648;9.004;2023-04-08T04:59:46;38.23;;;32.87;;
59062;SDS011;44851;45.648;9.004;2023-04-08T05:02:11;40.03;;;33.20;;
59062;SDS011;44851;45.648;9.004;2023-04-08T05:04:37;38.20;;;32.27;;
59062;SDS011;44851;45.648;9.004;2023-04-08T05:07:02;37.50;;;33.10;;
59062;SDS011;44851;45.648;9.004;2023-04-08T05:09:28;39.87;;;32.30;;
59062;SDS011;44851;45.648;9.004;2023-04-08T05:11:53;37.03;;;31.37;;
59062;SDS011;44851;45.648;9.004;2023-04-08T05:14:19;39.83;;;31.67;;
59062;SDS011;44851;45.648;9.004;2023-04-08T05:17:10;38.60;;;32.30;;
59062;SDS011;44851;45.648;9.004;2023-04-08T05:19:35;38.20;;;29.77;;
59062;SDS011;44851;45.648;9.004;2023-04-08T05:22:01;35.10;;;30.20;;
59062;SDS011;44851;45.648;9.004;2023-04-08T05:24:26;34.70;;;30.70;;
59062;SDS011;44851;45.648;9.004;2023-04-08T05:26:51;37.73;;;29.53;;
59062;SDS011;44851;45.648;9.004;2023-04-08T05:29:17;32.90;;;29.10;;
59062;SDS011;44851;45.648;9.004;2023-04-08T05:31:43;34.20;;;29.00;;
59062;SDS011;44851;45.648;9.004;2023-04-08T05:34:09;35.93;;;30.50;;
59062;SDS011;44851;45.648;9.004;2023-04-08T05:36:35;36.87;;;29.97;;
59062;SDS011;44851;45.648;9.004;2023-04-08T05:39:03;33.53;;;28.67;;
59062;SDS011;44851;45.648;9.004;2023-04-08T05:41:28;35.10;;;30.00;;
59062;SDS011;44851;45.648;9.004;2023-04-08T05:43:54;35.53;;;29.20;;
59062;SDS011;44851;45.648;9.004;2023-04-08T05:46:26;35.50;;;29.80;;
59062;SDS011;44851;45.648;9.004;2023-04-08T05:48:52;36.87;;;29.17;;
59062;SDS011;44851;45.648;9.004;2023-04-08T05:51:17;35.00;;;29.93;;
59062;SDS011;44851;45.648;9.004;2023-04-08T05:53:46;32.93;;;28.97;;
59062;SDS011;44851;45.648;9.004;2023-04-08T05:56:11;33.77;;;28.67;;
59062;SDS011;44851;45.648;9.004;2023-04-08T05:58:36;36.43;;;29.67;;
59062;SDS011;44851;45.648;9.004;2023-04-08T06:01:02;34.20;;;28.57;;
59062;SDS011;44851;45.648;9.004;2023-04-08T06:03:29;29.67;;;26.23;;
59062;SDS011;44851;45.648;9.004;2023-04-08T06:05:55;32.73;;;28.27;;
59062;SDS011;44851;45.648;9.004;2023-04-08T06:08:20;32.93;;;29.37;;
59062;SDS011;44851;45.648;9.004;2023-04-08T06:10:51;32.40;;;28.07;;
59062;SDS011;44851;45.648;9.004;2023-04-08T06:13:17;30.57;;;26.33;;
59062;SDS011;44851;45.648;9.004;2023-04-08T06:15:44;29.33;;;26.10;;
59062;SDS011;44851;45.648;9.004;2023-04-08T06:18:09;29.07;;;25.87;;
59062;SDS011;44851;45.648;9.004;2023-04-08T06:20:35;29.97;;;25.67;;
59062;SDS011;44851;45.648;9.004;2023-04-08T06:23:00;28.03;;;25.03;;
59062;SDS011;44851;45.648;9.004;2023-04-08T06:25:26;28.77;;;25.63;;
59062;SDS011;44851;45.648;9.004;2023-04-08T06:27:54;27.70;;;24.57;;
59062;SDS011;44851;45.648;9.004;2023-04-08T06:30:19;27.80;;;24.10;;
59062;SDS011;44851;45.648;9.004;2023-04-08T06:32:45;27.83;;;24.87;;
59062;SDS011;44851;45.648;9.004;2023-04-08T06:35:11;29.27;;;24.73;;
59062;SDS011;44851;45.648;9.004;2023-04-08T06:37:37;28.17;;;25.07;;
59062;SDS011;44851;45.648;9.004;2023-04-08T06:40:10;30.67;;;26.57;;
59062;SDS011;44851;45.648;9.004;2023-04-08T06:42:35;28.70;;;25.70;;
59062;SDS011;44851;45.648;9.004;2023-04-08T06:45:03;26.93;;;24.13;;
59062;SDS011;44851;45.648;9.004;2023-04-08T06:47:46;25.47;;;22.77;;
59062;SDS011;44851;45.648;9.004;2023-04-08T06:50:12;25.77;;;22.70;;
59062;SDS011;44851;45.648;9.004;2023-04-08T06:52:37;25.07;;;22.37;;
59062;SDS011;44851;45.648;9.004;2023-04-08T06:55:02;28.90;;;24.37;;
59062;SDS011;44851;45.648;9.004;2023-04-08T06:57:28;39.60;;;31.40;;
59062;SDS011;44851;45.648;9.004;2023-04-08T06:59:54;39.70;;;32.20;;
59062;SDS011;44851;45.648;9.004;2023-04-08T07:02:26;38.67;;;30.10;;
59062;SDS011;44851;45.648;9.004;2023-04-08T07:04:52;34.47;;;29.10;;
59062;SDS011;44851;45.648;9.004;2023-04-08T07:07:17;28.77;;;25.73;;
59062;SDS011;44851;45.648;9.004;2023-04-08T07:09:43;28.70;;;25.70;;
59062;SDS011;44851;45.648;9.004;2023-04-08T07:12:10;26.47;;;23.67;;
59062;SDS011;44851;45.648;9.004;2023-04-08T07:14:36;24.17;;;21.60;;
59062;SDS011;44851;45.648;9.004;2023-04-08T07:17:10;24.20;;;21.60;;
59062;SDS011;44851;45.648;9.004;2023-04-08T07:19:36;23.17;;;20.87;;
59062;SDS011;44851;45.648;9.004;2023-04-08T07:22:01;23.93;;;21.43;;
59062;SDS011;44851;45.648;9.004;2023-04-08T07:24:27;25.67;;;22.97;;
59062;SDS011;44851;45.648;9.004;2023-04-08T07:26:52;25.20;;;22.60;;
59062;SDS011;44851;45.648;9.004;2023-04-08T07:29:19;22.20;;;19.90;;
59062;SDS011;44851;45.648;9.004;2023-04-08T07:31:44;25.30;;;21.67;;
59062;SDS011;44851;45.648;9.004;2023-04-08T07:34:10;23.13;;;20.70;;
59062;SDS011;44851;45.648;9.004;2023-04-08T07:36:35;23.70;;;21.23;;
59062;SDS011;44851;45.648;9.004;2023-04-08T07:39:02;23.40;;;20.33;;
59062;SDS011;44851;45.648;9.004;2023-04-08T07:41:28;23.53;;;21.23;;
59062;SDS011;44851;45.648;9.004;2023-04-08T07:43:53;22.63;;;20.47;;
59062;SDS011;44851;45.648;9.004;2023-04-08T07:46:18;24.60;;;22.03;;
59062;SDS011;44851;45.648;9.004;2023-04-08T07:48:45;24.20;;;21.67;;
59062;SDS011;44851;45.648;9.004;2023-04-08T07:51:10;22.97;;;20.87;;
59062;SDS011;44851;45.648;9.004;2023-04-08T07:53:36;23.20;;;20.93;;
59062;SDS011;44851;45.648;9.004;2023-04-08T07:56:01;22.93;;;20.67;;
59062;SDS011;44851;45.648;9.004;2023-04-08T07:58:30;26.77;;;24.03;;
59062;SDS011;44851;45.648;9.004;2023-04-08T08:00:56;24.53;;;22.13;;
59062;SDS011;44851;45.648;9.004;2023-04-08T08:03:22;27.80;;;24.93;;
59062;SDS011;44851;45.648;9.004;2023-04-08T08:05:47;25.43;;;22.93;;
59062;SDS011;44851;45.648;9.004;2023-04-08T08:08:13;27.00;;;24.27;;
59062;SDS011;44851;45.648;9.004;2023-04-08T08:10:39;26.37;;;23.73;;
59062;SDS011;44851;45.648;9.004;2023-04-08T08:13:05;26.10;;;23.50;;
59062;SDS011;44851;45.648;9.004;2023-04-08T08:15:32;24.77;;;22.37;;
59062;SDS011;44851;45.648;9.004;2023-04-08T08:17:57;25.83;;;23.13;;
59062;SDS011;44851;45.648;9.004;2023-04-08T08:20:23;25.07;;;22.63;;
59062;SDS011;44851;45.648;9.004;2023-04-08T08:22:48;24.40;;;22.00;;
59062;SDS011;44851;45.648;9.004;2023-04-08T08:25:14;23.70;;;21.40;;
59062;SDS011;44851;45.648;9.004;2023-04-08T08:27:40;23.13;;;20.80;;
59062;SDS011;44851;45.648;9.004;2023-04-08T08:30:06;24.33;;;21.93;;
59062;SDS011;44851;45.648;9.004;2023-04-08T08:32:33;21.80;;;19.60;;
59062;SDS011;44851;45.648;9.004;2023-04-08T08:34:58;28.60;;;25.80;;
59062;SDS011;44851;45.648;9.004;2023-04-08T08:37:24;24.07;;;21.67;;
59062;SDS011;44851;45.648;9.004;2023-04-08T08:39:49;22.73;;;20.53;;
59062;SDS011;44851;45.648;9.004;2023-04-08T08:42:21;22.60;;;20.40;;
59062;SDS011;44851;45.648;9.004;2023-04-08T08:44:48;20.83;;;18.70;;
59062;SDS011;44851;45.648;9.004;2023-04-08T08:47:16;20.83;;;18.73;;
59062;SDS011;44851;45.648;9.004;2023-04-08T08:49:42;18.83;;;16.93;;
59062;SDS011;44851;45.648;9.004;2023-04-08T08:52:08;18.93;;;17.17;;
59062;SDS011;44851;45.648;9.004;2023-04-08T08:54:34;19.07;;;17.23;;
59062;SDS011;44851;45.648;9.004;2023-04-08T08:57:01;18.63;;;16.73;;
59062;SDS011;44851;45.648;9.004;2023-04-08T08:59:26;18.00;;;16.17;;
59062;SDS011;44851;45.648;9.004;2023-04-08T09:01:52;18.67;;;16.87;;
59062;SDS011;44851;45.648;9.004;2023-04-08T09:04:20;17.50;;;15.90;;
59062;SDS011;44851;45.648;9.004;2023-04-08T09:06:47;17.37;;;15.77;;
59062;SDS011;44851;45.648;9.004;2023-04-08T09:09:15;16.90;;;15.30;;
59062;SDS011;44851;45.648;9.004;2023-04-08T09:11:44;17.27;;;15.50;;
59062;SDS011;44851;45.648;9.004;2023-04-08T09:14:21;18.63;;;16.83;;
59062;SDS011;44851;45.648;9.004;2023-04-08T09:16:47;21.33;;;19.33;;
59062;SDS011;44851;45.648;9.004;2023-04-08T09:19:13;19.03;;;17.13;;
59062;SDS011;44851;45.648;9.004;2023-04-08T09:21:38;16.43;;;14.83;;
59062;SDS011;44851;45.648;9.004;2023-04-08T09:24:07;19.43;;;16.70;;
59062;SDS011;44851;45.648;9.004;2023-04-08T09:26:35;20.70;;;18.50;;
59062;SDS011;44851;45.648;9.004;2023-04-08T09:29:06;22.33;;;17.93;;
59062;SDS011;44851;45.648;9.004;2023-04-08T09:31:33;18.70;;;16.80;;
59062;SDS011;44851;45.648;9.004;2023-04-08T09:34:11;19.93;;;18.03;;
59062;SDS011;44851;45.648;9.004;2023-04-08T09:36:39;20.67;;;18.53;;
59062;SDS011;44851;45.648;9.004;2023-04-08T09:39:04;18.27;;;16.67;;
59062;SDS011;44851;45.648;9.004;2023-04-08T09:41:34;19.50;;;17.63;;
59062;SDS011;44851;45.648;9.004;2023-04-08T09:44:02;21.00;;;19.00;;
59062;SDS011;44851;45.648;9.004;2023-04-08T09:46:32;19.87;;;18.07;;
59062;SDS011;44851;45.648;9.004;2023-04-08T09:49:24;20.17;;;18.23;;
59062;SDS011;44851;45.648;9.004;2023-04-08T09:52:08;23.23;;;20.77;;
59062;SDS011;44851;45.648;9.004;2023-04-08T09:54:51;22.73;;;20.53;;
59062;SDS011;44851;45.648;9.004;2023-04-08T10:00:17;21.53;;;19.43;;
59062;SDS011;44851;45.648;9.004;2023-04-08T10:05:27;25.30;;;22.83;;
59062;SDS011;44851;45.648;9.004;2023-04-08T10:07:57;26.33;;;23.70;;
59062;SDS011;44851;45.648;9.004;2023-04-08T10:10:23;22.83;;;20.67;;
59062;SDS011;44851;45.648;9.004;2023-04-08T10:12:49;23.80;;;21.50;;
59062;SDS011;44851;45.648;9.004;2023-04-08T10:17:54;18.73;;;16.90;;
59062;SDS011;44851;45.648;9.004;2023-04-08T10:20:43;18.97;;;16.97;;
59062;SDS011;44851;45.648;9.004;2023-04-08T10:23:14;17.33;;;15.63;;
59062;SDS011;44851;45.648;9.004;2023-04-08T10:25:41;18.83;;;17.03;;
59062;SDS011;44851;45.648;9.004;2023-04-08T10:33:03;18.37;;;16.57;;
59062;SDS011;44851;45.648;9.004;2023-04-08T10:35:35;19.77;;;17.50;;
59062;SDS011;44851;45.648;9.004;2023-04-08T10:38:01;18.80;;;16.90;;
59062;SDS011;44851;45.648;9.004;2023-04-08T10:40:27;20.10;;;18.00;;
59062;SDS011;44851;45.648;9.004;2023-04-08T10:42:54;17.03;;;15.20;;
59062;SDS011;44851;45.648;9.004;2023-04-08T10:45:20;19.80;;;17.93;;
59062;SDS011;44851;45.648;9.004;2023-04-08T10:47:46;19.33;;;17.33;;
59062;SDS011;44851;45.648;9.004;2023-04-08T10:50:15;18.37;;;16.37;;
59062;SDS011;44851;45.648;9.004;2023-04-08T10:52:51;17.50;;;15.57;;
59062;SDS011;44851;45.648;9.004;2023-04-08T10:55:24;16.33;;;13.67;;
59062;SDS011;44851;45.648;9.004;2023-04-08T10:57:51;17.53;;;15.27;;
59062;SDS011;44851;45.648;9.004;2023-04-08T11:00:18;17.50;;;15.53;;
59062;SDS011;44851;45.648;9.004;2023-04-08T11:02:59;15.23;;;12.07;;
59062;SDS011;44851;45.648;9.004;2023-04-08T11:05:31;16.33;;;14.03;;
59062;SDS011;44851;45.648;9.004;2023-04-08T11:07:57;15.63;;;13.90;;
59062;SDS011;44851;45.648;9.004;2023-04-08T11:10:24;17.47;;;15.77;;
59062;SDS011;44851;45.648;9.004;2023-04-08T11:12:51;16.33;;;14.70;;
59062;SDS011;44851;45.648;9.004;2023-04-08T11:15:18;17.20;;;15.20;;
59062;SDS011;44851;45.648;9.004;2023-04-08T11:17:44;14.70;;;13.20;;
59062;SDS011;44851;45.648;9.004;2023-04-08T11:20:11;15.97;;;13.77;;
59062;SDS011;44851;45.648;9.004;2023-04-08T11:22:38;17.17;;;14.80;;
59062;SDS011;44851;45.648;9.004;2023-04-08T11:25:03;18.13;;;14.97;;
59062;SDS011;44851;45.648;9.004;2023-04-08T11:27:32;17.40;;;14.93;;
59062;SDS011;44851;45.648;9.004;2023-04-08T11:29:58;19.43;;;15.30;;
59062;SDS011;44851;45.648;9.004;2023-04-08T11:32:24;15.97;;;14.27;;
59062;SDS011;44851;45.648;9.004;2023-04-08T11:34:50;15.67;;;13.97;;
59062;SDS011;44851;45.648;9.004;2023-04-08T11:37:17;15.10;;;13.50;;
59062;SDS011;44851;45.648;9.004;2023-04-08T11:39:43;16.93;;;14.63;;
59062;SDS011;44851;45.648;9.004;2023-04-08T11:42:08;17.17;;;15.00;;
59062;SDS011;44851;45.648;9.004;2023-04-08T11:44:50;15.63;;;14.03;;
59062;SDS011;44851;45.648;9.004;2023-04-08T11:47:15;18.57;;;16.47;;
59062;SDS011;44851;45.648;9.004;2023-04-08T11:49:44;16.00;;;13.90;;
59062;SDS011;44851;45.648;9.004;2023-04-08T11:52:10;14.60;;;13.10;;
59062;SDS011;44851;45.648;9.004;2023-04-08T11:54:39;15.00;;;13.50;;
59062;SDS011;44851;45.648;9.004;2023-04-08T11:57:05;14.27;;;12.87;;
59062;SDS011;44851;45.648;9.004;2023-04-08T11:59:33;13.83;;;12.33;;
59062;SDS011;44851;45.648;9.004;2023-04-08T12:02:00;14.23;;;12.83;;
59062;SDS011;44851;45.648;9.004;2023-04-08T12:04:26;15.20;;;13.30;;
59062;SDS011;44851;45.648;9.004;2023-04-08T12:06:52;14.50;;;12.80;;
59062;SDS011;44851;45.648;9.004;2023-04-08T12:09:17;15.23;;;13.73;;
59062;SDS011;44851;45.648;9.004;2023-04-08T12:11:43;14.37;;;12.90;;
59062;SDS011;44851;45.648;9.004;2023-04-08T12:14:08;14.57;;;13.10;;
59062;SDS011;44851;45.648;9.004;2023-04-08T12:16:34;13.37;;;12.07;;
59062;SDS011;44851;45.648;9.004;2023-04-08T12:19:00;13.30;;;12.00;;
59062;SDS011;44851;45.648;9.004;2023-04-08T12:21:25;13.67;;;12.23;;
59062;SDS011;44851;45.648;9.004;2023-04-08T12:23:51;12.23;;;11.13;;
59062;SDS011;44851;45.648;9.004;2023-04-08T12:26:17;13.90;;;12.60;;
59062;SDS011;44851;45.648;9.004;2023-04-08T12:28:43;13.20;;;11.93;;
59062;SDS011;44851;45.648;9.004;2023-04-08T12:31:10;14.40;;;13.00;;
59062;SDS011;44851;45.648;9.004;2023-04-08T12:33:35;13.77;;;12.43;;
59062;SDS011;44851;45.648;9.004;2023-04-08T12:36:01;14.03;;;12.73;;
59062;SDS011;44851;45.648;9.004;2023-04-08T12:38:26;11.40;;;10.40;;
59062;SDS011;44851;45.648;9.004;2023-04-08T12:40:52;13.00;;;11.70;;
59062;SDS011;44851;45.648;9.004;2023-04-08T12:43:18;12.67;;;11.37;;
59062;SDS011;44851;45.648;9.004;2023-04-08T12:45:43;13.77;;;12.30;;
59062;SDS011;44851;45.648;9.004;2023-04-08T12:48:09;16.57;;;11.07;;
59062;SDS011;44851;45.648;9.004;2023-04-08T12:50:34;12.27;;;11.17;;
59062;SDS011;44851;45.648;9.004;2023-04-08T12:53:00;11.40;;;10.27;;
59062;SDS011;44851;45.648;9.004;2023-04-08T12:55:25;12.03;;;10.93;;
59062;SDS011;44851;45.648;9.004;2023-04-08T12:57:51;12.13;;;10.93;;
59062;SDS011;44851;45.648;9.004;2023-04-08T13:00:17;12.83;;;11.53;;
59062;SDS011;44851;45.648;9.004;2023-04-08T13:02:43;12.53;;;10.20;;
59062;SDS011;44851;45.648;9.004;2023-04-08T13:05:09;10.60;;;9.60;;
59062;SDS011;44851;45.648;9.004;2023-04-08T13:07:35;11.17;;;10.00;;
59062;SDS011;44851;45.648;9.004;2023-04-08T13:10:00;10.53;;;9.43;;
59062;SDS011;44851;45.648;9.004;2023-04-08T13:12:27;10.67;;;9.57;;
59062;SDS011;44851;45.648;9.004;2023-04-08T13:14:53;10.90;;;9.90;;
59062;SDS011;44851;45.648;9.004;2023-04-08T13:17:19;10.27;;;9.30;;
59062;SDS011;44851;45.648;9.004;2023-04-08T13:19:44;10.73;;;9.57;;
59062;SDS011;44851;45.648;9.004;2023-04-08T13:22:11;10.60;;;9.60;;
59062;SDS011;44851;45.648;9.004;2023-04-08T13:24:37;10.20;;;9.20;;
59062;SDS011;44851;45.648;9.004;2023-04-08T13:27:03;10.00;;;9.00;;
59062;SDS011;44851;45.648;9.004;2023-04-08T13:29:29;12.47;;;10.37;;
59062;SDS011;44851;45.648;9.004;2023-04-08T13:31:54;10.97;;;9.87;;
59062;SDS011;44851;45.648;9.004;2023-04-08T13:34:19;9.90;;;9.00;;
59062;SDS011;44851;45.648;9.004;2023-04-08T13:36:45;10.73;;;9.67;;
59062;SDS011;44851;45.648;9.004;2023-04-08T13:39:10;9.63;;;8.70;;
59062;SDS011;44851;45.648;9.004;2023-04-08T13:41:36;10.93;;;9.80;;
59062;SDS011;44851;45.648;9.004;2023-04-08T13:44:01;10.83;;;9.73;;
59062;SDS011;44851;45.648;9.004;2023-04-08T13:46:27;29.77;;;24.33;;
59062;SDS011;44851;45.648;9.004;2023-04-08T13:48:52;16.93;;;15.13;;
59062;SDS011;44851;45.648;9.004;2023-04-08T13:51:18;11.63;;;10.43;;
59062;SDS011;44851;45.648;9.004;2023-04-08T13:53:44;11.67;;;9.87;;
59062;SDS011;44851;45.648;9.004;2023-04-08T13:56:09;10.37;;;9.37;;
59062;SDS011;44851;45.648;9.004;2023-04-08T13:58:35;11.27;;;10.07;;
59062;SDS011;44851;45.648;9.004;2023-04-08T14:01:01;11.20;;;10.03;;
59062;SDS011;44851;45.648;9.004;2023-04-08T14:03:26;10.97;;;9.87;;
59062;SDS011;44851;45.648;9.004;2023-04-08T14:05:52;10.97;;;9.87;;
59062;SDS011;44851;45.648;9.004;2023-04-08T14:08:17;10.40;;;9.30;;
59062;SDS011;44851;45.648;9.004;2023-04-08T14:10:49;9.50;;;8.60;;
59062;SDS011;44851;45.648;9.004;2023-04-08T14:13:15;11.40;;;10.27;;
59062;SDS011;44851;45.648;9.004;2023-04-08T14:15:41;11.20;;;9.93;;
59062;SDS011;44851;45.648;9.004;2023-04-08T14:18:06;10.63;;;9.63;;
59062;SDS011;44851;45.648;9.004;2023-04-08T14:20:32;10.60;;;9.03;;
59062;SDS011;44851;45.648;9.004;2023-04-08T14:22:59;9.97;;;8.97;;
59062;SDS011;44851;45.648;9.004;2023-04-08T14:25:25;9.13;;;8.23;;
59062;SDS011;44851;45.648;9.004;2023-04-08T14:27:50;10.20;;;8.97;;
59062;SDS011;44851;45.648;9.004;2023-04-08T14:30:16;9.87;;;8.97;;
59062;SDS011;44851;45.648;9.004;2023-04-08T14:32:41;10.10;;;9.10;;
59062;SDS011;44851;45.648;9.004;2023-04-08T14:35:07;9.83;;;8.87;;
59062;SDS011;44851;45.648;9.004;2023-04-08T14:37:33;11.10;;;9.90;;
59062;SDS011;44851;45.648;9.004;2023-04-08T14:39:58;11.03;;;9.20;;
59062;SDS011;44851;45.648;9.004;2023-04-08T14:42:23;10.43;;;9.43;;